sensor_id;sensor_type;location;lat;lon;timestamp;P1;durP1;ratioP1;P2;durP2;ratioP2
23410;SDS011;11878;51.774;7.220;2022-09-09T00:03:04;2.97;;;0.60;;
23410;SDS011;11878;51.774;7.220;2022-09-09T00:06:42;1.43;;;0.50;;
23410;SDS011;11878;51.774;7.220;2022-09-09T00:16:20;0.37;;;0.30;;
23410;SDS011;11878;51.774;7.220;2022-09-09T00:19:33;1.13;;;0.50;;
23410;SDS011;11878;51.774;7.220;2022-09-09T00:22:57;2.53;;;0.50;;
23410;SDS011;11878;51.774;7.220;2022-09-09T00:32:38;2.17;;;0.60;;
23410;SDS011;11878;51.774;7.220;2022-09-09T00:42:43;0.87;;;0.50;;
23410;SDS011;11878;51.774;7.220;2022-09-09T00:55:54;2.97;;;1.07;;
23410;SDS011;11878;51.774;7.220;2022-09-09T00:59:10;1.20;;;0.47;;
23410;SDS011;11878;51.774;7.220;2022-09-09T01:02:31;2.43;;;0.73;;
23410;SDS011;11878;51.774;7.220;2022-09-09T01:09:23;1.60;;;0.70;;
23410;SDS011;11878;51.774;7.220;2022-09-09T01:12:44;1.33;;;0.60;;
23410;SDS011;11878;51.774;7.220;2022-09-09T01:15:53;1.67;;;0.80;;
23410;SDS011;11878;51.774;7.220;2022-09-09T01:19:01;0.80;;;0.53;;
23410;SDS011;11878;51.774;7.220;2022-09-09T01:29:10;2.63;;;0.60;;
23410;SDS011;11878;51.774;7.220;2022-09-09T01:35:55;2.00;;;0.50;;
23410;SDS011;11878;51.774;7.220;2022-09-09T01:39:08;1.50;;;0.50;;
23410;SDS011;11878;51.774;7.220;2022-09-09T01:42:13;1.30;;;0.50;;
23410;SDS011;11878;51.774;7.220;2022-09-09T01:45:17;1.10;;;0.50;;
23410;SDS011;11878;51.774;7.220;2022-09-09T01:48:19;2.07;;;0.60;;
23410;SDS011;11878;51.774;7.220;2022-09-09T01:51:36;1.00;;;0.50;;
23410;SDS011;11878;51.774;7.220;2022-09-09T01:54:43;2.50;;;0.40;;
23410;SDS011;11878;51.774;7.220;2022-09-09T01:57:56;4.07;;;0.73;;
23410;SDS011;11878;51.774;7.220;2022-09-09T02:01:17;1.23;;;0.50;;
23410;SDS011;11878;51.774;7.220;2022-09-09T02:04:36;1.13;;;0.60;;
23410;SDS011;11878;51.774;7.220;2022-09-09T02:07:46;1.10;;;0.50;;
23410;SDS011;11878;51.774;7.220;2022-09-09T02:11:05;1.03;;;0.53;;
23410;SDS011;11878;51.774;7.220;2022-09-09T02:14:22;0.80;;;0.60;;
23410;SDS011;11878;51.774;7.220;2022-09-09T02:17:30;2.83;;;0.70;;
23410;SDS011;11878;51.774;7.220;2022-09-09T02:20:44;2.10;;;0.60;;
23410;SDS011;11878;51.774;7.220;2022-09-09T02:23:47;1.37;;;0.77;;
23410;SDS011;11878;51.774;7.220;2022-09-09T02:26:53;2.43;;;0.80;;
23410;SDS011;11878;51.774;7.220;2022-09-09T02:29:57;1.40;;;0.70;;
23410;SDS011;11878;51.774;7.220;2022-09-09T02:33:12;1.37;;;0.77;;
23410;SDS011;11878;51.774;7.220;2022-09-09T02:36:19;1.40;;;0.80;;
23410;SDS011;11878;51.774;7.220;2022-09-09T02:39:23;3.53;;;0.60;;
23410;SDS011;11878;51.774;7.220;2022-09-09T02:42:26;0.90;;;0.70;;
23410;SDS011;11878;51.774;7.220;2022-09-09T02:45:32;3.80;;;0.93;;
23410;SDS011;11878;51.774;7.220;2022-09-09T02:48:45;1.17;;;0.70;;
23410;SDS011;11878;51.774;7.220;2022-09-09T02:55:06;1.23;;;0.70;;
23410;SDS011;11878;51.774;7.220;2022-09-09T02:58:27;2.40;;;0.90;;
23410;SDS011;11878;51.774;7.220;2022-09-09T03:01:36;2.80;;;0.80;;
23410;SDS011;11878;51.774;7.220;2022-09-09T03:04:41;3.33;;;0.67;;
23410;SDS011;11878;51.774;7.220;2022-09-09T03:07:47;1.03;;;0.63;;
23410;SDS011;11878;51.774;7.220;2022-09-09T03:10:50;3.23;;;0.90;;
23410;SDS011;11878;51.774;7.220;2022-09-09T03:13:53;1.50;;;0.53;;
23410;SDS011;11878;51.774;7.220;2022-09-09T03:16:58;6.00;;;1.27;;
23410;SDS011;11878;51.774;7.220;2022-09-09T03:20:05;2.83;;;0.80;;
23410;SDS011;11878;51.774;7.220;2022-09-09T03:23:07;5.37;;;1.50;;
23410;SDS011;11878;51.774;7.220;2022-09-09T03:26:16;1.50;;;0.77;;
23410;SDS011;11878;51.774;7.220;2022-09-09T03:29:20;1.00;;;0.60;;
23410;SDS011;11878;51.774;7.220;2022-09-09T03:32:23;1.13;;;0.70;;
23410;SDS011;11878;51.774;7.220;2022-09-09T03:35:29;5.20;;;1.20;;
23410;SDS011;11878;51.774;7.220;2022-09-09T03:38:31;1.43;;;0.50;;
23410;SDS011;11878;51.774;7.220;2022-09-09T03:41:33;2.73;;;0.80;;
23410;SDS011;11878;51.774;7.220;2022-09-09T03:44:36;1.80;;;0.87;;
23410;SDS011;11878;51.774;7.220;2022-09-09T03:47:38;5.00;;;0.93;;
23410;SDS011;11878;51.774;7.220;2022-09-09T03:50:47;1.97;;;0.80;;
23410;SDS011;11878;51.774;7.220;2022-09-09T03:53:50;1.20;;;0.80;;
23410;SDS011;11878;51.774;7.220;2022-09-09T03:56:52;2.87;;;0.90;;
23410;SDS011;11878;51.774;7.220;2022-09-09T03:59:56;1.83;;;0.93;;
23410;SDS011;11878;51.774;7.220;2022-09-09T04:02:59;1.93;;;0.80;;
23410;SDS011;11878;51.774;7.220;2022-09-09T04:06:02;2.50;;;0.80;;
23410;SDS011;11878;51.774;7.220;2022-09-09T04:09:06;2.73;;;0.80;;
23410;SDS011;11878;51.774;7.220;2022-09-09T04:12:08;2.23;;;0.87;;
23410;SDS011;11878;51.774;7.220;2022-09-09T04:15:12;1.93;;;0.90;;
23410;SDS011;11878;51.774;7.220;2022-09-09T04:18:14;3.20;;;0.90;;
23410;SDS011;11878;51.774;7.220;2022-09-09T04:21:20;3.80;;;1.07;;
23410;SDS011;11878;51.774;7.220;2022-09-09T04:24:22;1.60;;;1.00;;
23410;SDS011;11878;51.774;7.220;2022-09-09T04:27:24;1.30;;;0.73;;
23410;SDS011;11878;51.774;7.220;2022-09-09T04:30:26;2.47;;;0.80;;
23410;SDS011;11878;51.774;7.220;2022-09-09T04:33:28;3.20;;;0.93;;
23410;SDS011;11878;51.774;7.220;2022-09-09T04:36:31;2.43;;;0.93;;
23410;SDS011;11878;51.774;7.220;2022-09-09T04:39:37;1.53;;;1.00;;
23410;SDS011;11878;51.774;7.220;2022-09-09T04:42:40;3.57;;;0.93;;
23410;SDS011;11878;51.774;7.220;2022-09-09T04:45:47;4.23;;;1.37;;
23410;SDS011;11878;51.774;7.220;2022-09-09T04:48:50;4.57;;;1.30;;
23410;SDS011;11878;51.774;7.220;2022-09-09T04:51:53;3.10;;;0.90;;
23410;SDS011;11878;51.774;7.220;2022-09-09T04:54:56;1.60;;;1.00;;
23410;SDS011;11878;51.774;7.220;2022-09-09T04:57:58;3.20;;;1.20;;
23410;SDS011;11878;51.774;7.220;2022-09-09T05:01:06;1.33;;;0.97;;
23410;SDS011;11878;51.774;7.220;2022-09-09T05:04:10;3.50;;;1.33;;
23410;SDS011;11878;51.774;7.220;2022-09-09T05:07:12;6.50;;;1.53;;
23410;SDS011;11878;51.774;7.220;2022-09-09T05:10:15;2.20;;;1.40;;
23410;SDS011;11878;51.774;7.220;2022-09-09T05:13:20;5.60;;;1.40;;
23410;SDS011;11878;51.774;7.220;2022-09-09T05:16:23;2.20;;;1.13;;
23410;SDS011;11878;51.774;7.220;2022-09-09T05:19:25;8.50;;;1.13;;
23410;SDS011;11878;51.774;7.220;2022-09-09T05:22:28;2.57;;;1.07;;
23410;SDS011;11878;51.774;7.220;2022-09-09T05:25:29;2.07;;;1.10;;
23410;SDS011;11878;51.774;7.220;2022-09-09T05:28:33;2.83;;;1.13;;
23410;SDS011;11878;51.774;7.220;2022-09-09T05:31:36;5.20;;;1.10;;
23410;SDS011;11878;51.774;7.220;2022-09-09T05:34:43;2.73;;;0.93;;
23410;SDS011;11878;51.774;7.220;2022-09-09T05:37:46;4.60;;;1.30;;
23410;SDS011;11878;51.774;7.220;2022-09-09T05:40:49;3.93;;;1.17;;
23410;SDS011;11878;51.774;7.220;2022-09-09T05:43:51;2.20;;;1.10;;
23410;SDS011;11878;51.774;7.220;2022-09-09T05:46:54;8.90;;;1.70;;
23410;SDS011;11878;51.774;7.220;2022-09-09T05:49:56;5.53;;;1.30;;
23410;SDS011;11878;51.774;7.220;2022-09-09T05:52:58;3.53;;;1.00;;
23410;SDS011;11878;51.774;7.220;2022-09-09T05:56:04;4.23;;;1.20;;
23410;SDS011;11878;51.774;7.220;2022-09-09T05:59:08;1.83;;;1.03;;
23410;SDS011;11878;51.774;7.220;2022-09-09T06:02:12;4.53;;;1.20;;
23410;SDS011;11878;51.774;7.220;2022-09-09T06:05:14;5.80;;;1.37;;
23410;SDS011;11878;51.774;7.220;2022-09-09T06:08:17;3.47;;;1.10;;
23410;SDS011;11878;51.774;7.220;2022-09-09T06:11:20;4.13;;;1.10;;
23410;SDS011;11878;51.774;7.220;2022-09-09T06:14:24;4.77;;;1.27;;
23410;SDS011;11878;51.774;7.220;2022-09-09T06:17:27;2.93;;;0.93;;
23410;SDS011;11878;51.774;7.220;2022-09-09T06:20:29;4.37;;;1.20;;
23410;SDS011;11878;51.774;7.220;2022-09-09T06:23:32;4.90;;;1.13;;
23410;SDS011;11878;51.774;7.220;2022-09-09T06:26:38;3.10;;;1.00;;
23410;SDS011;11878;51.774;7.220;2022-09-09T06:29:44;5.43;;;1.03;;
23410;SDS011;11878;51.774;7.220;2022-09-09T06:32:46;3.47;;;1.30;;
23410;SDS011;11878;51.774;7.220;2022-09-09T06:35:51;1.57;;;0.97;;
23410;SDS011;11878;51.774;7.220;2022-09-09T06:38:55;10.27;;;1.47;;
23410;SDS011;11878;51.774;7.220;2022-09-09T06:41:57;3.43;;;1.07;;
23410;SDS011;11878;51.774;7.220;2022-09-09T06:45:25;4.00;;;1.40;;
23410;SDS011;11878;51.774;7.220;2022-09-09T06:48:31;2.00;;;0.90;;
23410;SDS011;11878;51.774;7.220;2022-09-09T06:51:35;4.43;;;0.97;;
23410;SDS011;11878;51.774;7.220;2022-09-09T06:54:39;2.03;;;0.87;;
23410;SDS011;11878;51.774;7.220;2022-09-09T06:57:40;7.13;;;1.40;;
23410;SDS011;11878;51.774;7.220;2022-09-09T07:00:48;1.90;;;0.90;;
23410;SDS011;11878;51.774;7.220;2022-09-09T07:03:51;1.70;;;1.00;;
23410;SDS011;11878;51.774;7.220;2022-09-09T07:06:55;4.37;;;0.93;;
23410;SDS011;11878;51.774;7.220;2022-09-09T07:09:59;2.53;;;1.10;;
23410;SDS011;11878;51.774;7.220;2022-09-09T07:13:01;6.57;;;1.60;;
23410;SDS011;11878;51.774;7.220;2022-09-09T07:16:04;4.87;;;1.20;;
23410;SDS011;11878;51.774;7.220;2022-09-09T07:19:06;4.83;;;1.40;;
23410;SDS011;11878;51.774;7.220;2022-09-09T07:22:08;4.43;;;1.00;;
23410;SDS011;11878;51.774;7.220;2022-09-09T07:25:12;4.17;;;1.03;;
23410;SDS011;11878;51.774;7.220;2022-09-09T07:28:15;1.63;;;1.00;;
23410;SDS011;11878;51.774;7.220;2022-09-09T07:31:19;4.20;;;1.30;;
23410;SDS011;11878;51.774;7.220;2022-09-09T07:34:26;4.17;;;1.17;;
23410;SDS011;11878;51.774;7.220;2022-09-09T07:37:28;6.00;;;1.23;;
23410;SDS011;11878;51.774;7.220;2022-09-09T07:40:31;6.43;;;1.13;;
23410;SDS011;11878;51.774;7.220;2022-09-09T07:43:33;6.70;;;1.10;;
23410;SDS011;11878;51.774;7.220;2022-09-09T07:46:36;10.77;;;1.30;;
23410;SDS011;11878;51.774;7.220;2022-09-09T07:49:42;3.43;;;1.30;;
23410;SDS011;11878;51.774;7.220;2022-09-09T07:52:44;4.33;;;1.40;;
23410;SDS011;11878;51.774;7.220;2022-09-09T07:55:45;2.73;;;1.00;;
23410;SDS011;11878;51.774;7.220;2022-09-09T07:58:48;3.73;;;0.80;;
23410;SDS011;11878;51.774;7.220;2022-09-09T08:01:51;2.63;;;1.00;;
23410;SDS011;11878;51.774;7.220;2022-09-09T08:05:01;8.37;;;1.40;;
23410;SDS011;11878;51.774;7.220;2022-09-09T08:08:03;2.60;;;0.77;;
23410;SDS011;11878;51.774;7.220;2022-09-09T08:11:07;4.37;;;1.10;;
23410;SDS011;11878;51.774;7.220;2022-09-09T08:14:12;7.00;;;1.03;;
23410;SDS011;11878;51.774;7.220;2022-09-09T08:17:15;6.57;;;1.13;;
23410;SDS011;11878;51.774;7.220;2022-09-09T08:20:17;3.80;;;1.03;;
23410;SDS011;11878;51.774;7.220;2022-09-09T08:23:19;10.97;;;1.10;;
23410;SDS011;11878;51.774;7.220;2022-09-09T08:26:23;2.40;;;0.80;;
23410;SDS011;11878;51.774;7.220;2022-09-09T08:29:26;3.53;;;0.90;;
23410;SDS011;11878;51.774;7.220;2022-09-09T08:32:29;4.77;;;0.80;;
23410;SDS011;11878;51.774;7.220;2022-09-09T08:35:32;2.43;;;0.70;;
23410;SDS011;11878;51.774;7.220;2022-09-09T08:38:35;7.67;;;0.90;;
23410;SDS011;11878;51.774;7.220;2022-09-09T08:48:20;5.47;;;1.00;;
23410;SDS011;11878;51.774;7.220;2022-09-09T08:51:27;4.27;;;0.90;;
23410;SDS011;11878;51.774;7.220;2022-09-09T08:54:33;3.03;;;1.03;;
23410;SDS011;11878;51.774;7.220;2022-09-09T08:57:53;6.00;;;1.20;;
23410;SDS011;11878;51.774;7.220;2022-09-09T09:07:40;5.57;;;0.70;;
23410;SDS011;11878;51.774;7.220;2022-09-09T09:11:01;6.10;;;0.80;;
23410;SDS011;11878;51.774;7.220;2022-09-09T09:14:24;2.67;;;0.67;;
23410;SDS011;11878;51.774;7.220;2022-09-09T09:17:32;2.40;;;0.63;;
23410;SDS011;11878;51.774;7.220;2022-09-09T09:20:42;10.00;;;0.63;;
23410;SDS011;11878;51.774;7.220;2022-09-09T09:23:57;6.40;;;1.40;;
23410;SDS011;11878;51.774;7.220;2022-09-09T09:27:12;6.37;;;0.93;;
23410;SDS011;11878;51.774;7.220;2022-09-09T09:30:21;3.70;;;1.03;;
23410;SDS011;11878;51.774;7.220;2022-09-09T09:33:51;2.83;;;0.80;;
23410;SDS011;11878;51.774;7.220;2022-09-09T09:36:59;2.50;;;0.70;;
23410;SDS011;11878;51.774;7.220;2022-09-09T09:40:11;5.33;;;1.23;;
23410;SDS011;11878;51.774;7.220;2022-09-09T09:43:19;3.97;;;0.80;;
23410;SDS011;11878;51.774;7.220;2022-09-09T09:46:25;4.00;;;0.70;;
23410;SDS011;11878;51.774;7.220;2022-09-09T09:49:34;2.57;;;0.80;;
23410;SDS011;11878;51.774;7.220;2022-09-09T09:52:36;3.27;;;0.80;;
23410;SDS011;11878;51.774;7.220;2022-09-09T09:55:44;4.03;;;0.77;;
23410;SDS011;11878;51.774;7.220;2022-09-09T09:58:55;3.27;;;0.80;;
23410;SDS011;11878;51.774;7.220;2022-09-09T10:02:21;2.73;;;0.57;;
23410;SDS011;11878;51.774;7.220;2022-09-09T10:05:38;2.53;;;0.93;;
23410;SDS011;11878;51.774;7.220;2022-09-09T10:08:47;2.90;;;0.70;;
23410;SDS011;11878;51.774;7.220;2022-09-09T10:11:55;4.50;;;0.87;;
23410;SDS011;11878;51.774;7.220;2022-09-09T10:18:40;3.13;;;0.50;;
23410;SDS011;11878;51.774;7.220;2022-09-09T10:25:01;1.33;;;0.53;;
23410;SDS011;11878;51.774;7.220;2022-09-09T10:28:40;2.27;;;0.70;;
23410;SDS011;11878;51.774;7.220;2022-09-09T10:35:27;5.70;;;1.10;;
23410;SDS011;11878;51.774;7.220;2022-09-09T10:38:46;4.47;;;0.90;;
23410;SDS011;11878;51.774;7.220;2022-09-09T10:42:07;6.37;;;1.20;;
23410;SDS011;11878;51.774;7.220;2022-09-09T10:45:31;1.53;;;0.67;;
23410;SDS011;11878;51.774;7.220;2022-09-09T10:55:39;3.10;;;0.77;;
23410;SDS011;11878;51.774;7.220;2022-09-09T10:58:46;2.87;;;0.70;;
23410;SDS011;11878;51.774;7.220;2022-09-09T11:05:21;1.10;;;0.50;;
23410;SDS011;11878;51.774;7.220;2022-09-09T11:08:30;4.20;;;0.50;;
23410;SDS011;11878;51.774;7.220;2022-09-09T11:11:42;4.60;;;1.00;;
23410;SDS011;11878;51.774;7.220;2022-09-09T11:14:55;3.47;;;0.60;;
23410;SDS011;11878;51.774;7.220;2022-09-09T11:18:03;5.03;;;1.13;;
23410;SDS011;11878;51.774;7.220;2022-09-09T11:21:08;2.97;;;0.60;;
23410;SDS011;11878;51.774;7.220;2022-09-09T11:24:23;4.00;;;0.63;;
23410;SDS011;11878;51.774;7.220;2022-09-09T11:30:43;3.83;;;0.50;;
23410;SDS011;11878;51.774;7.220;2022-09-09T11:34:13;1.60;;;0.60;;
23410;SDS011;11878;51.774;7.220;2022-09-09T11:38:45;1.10;;;0.40;;
23410;SDS011;11878;51.774;7.220;2022-09-09T11:41:19;6.43;;;0.70;;
23410;SDS011;11878;51.774;7.220;2022-09-09T11:44:27;1.57;;;0.40;;
23410;SDS011;11878;51.774;7.220;2022-09-09T11:47:31;1.80;;;0.50;;
23410;SDS011;11878;51.774;7.220;2022-09-09T11:50:36;1.33;;;0.40;;
23410;SDS011;11878;51.774;7.220;2022-09-09T11:53:52;1.63;;;0.40;;
23410;SDS011;11878;51.774;7.220;2022-09-09T11:56:55;3.20;;;0.60;;
23410;SDS011;11878;51.774;7.220;2022-09-09T11:59:57;1.60;;;0.40;;
23410;SDS011;11878;51.774;7.220;2022-09-09T12:03:00;1.27;;;0.30;;
23410;SDS011;11878;51.774;7.220;2022-09-09T12:12:28;1.37;;;0.60;;
23410;SDS011;11878;51.774;7.220;2022-09-09T12:15:47;3.40;;;0.63;;
23410;SDS011;11878;51.774;7.220;2022-09-09T12:18:50;1.20;;;0.40;;
23410;SDS011;11878;51.774;7.220;2022-09-09T12:22:01;2.03;;;0.45;;
23410;SDS011;11878;51.774;7.220;2022-09-09T12:31:51;3.00;;;0.70;;
23410;SDS011;11878;51.774;7.220;2022-09-09T12:35:10;2.23;;;0.60;;
23410;SDS011;11878;51.774;7.220;2022-09-09T12:38:25;3.17;;;0.70;;
23410;SDS011;11878;51.774;7.220;2022-09-09T12:41:33;2.73;;;0.40;;
23410;SDS011;11878;51.774;7.220;2022-09-09T12:44:34;2.57;;;0.50;;
23410;SDS011;11878;51.774;7.220;2022-09-09T12:47:38;3.17;;;0.47;;
23410;SDS011;11878;51.774;7.220;2022-09-09T12:50:50;6.03;;;0.73;;
23410;SDS011;11878;51.774;7.220;2022-09-09T12:53:53;1.47;;;0.43;;
23410;SDS011;11878;51.774;7.220;2022-09-09T12:56:56;6.20;;;0.77;;
23410;SDS011;11878;51.774;7.220;2022-09-09T13:00:06;4.90;;;0.97;;
23410;SDS011;11878;51.774;7.220;2022-09-09T13:03:16;3.13;;;0.60;;
23410;SDS011;11878;51.774;7.220;2022-09-09T13:09:29;5.67;;;1.10;;
23410;SDS011;11878;51.774;7.220;2022-09-09T13:12:31;1.77;;;0.60;;
23410;SDS011;11878;51.774;7.220;2022-09-09T13:15:32;5.27;;;1.03;;
23410;SDS011;11878;51.774;7.220;2022-09-09T13:18:35;2.30;;;0.80;;
23410;SDS011;11878;51.774;7.220;2022-09-09T13:21:41;1.97;;;0.77;;
23410;SDS011;11878;51.774;7.220;2022-09-09T13:24:43;5.93;;;0.70;;
23410;SDS011;11878;51.774;7.220;2022-09-09T13:27:52;2.43;;;0.63;;
23410;SDS011;11878;51.774;7.220;2022-09-09T13:31:18;6.57;;;1.13;;
23410;SDS011;11878;51.774;7.220;2022-09-09T13:34:26;3.63;;;1.00;;
23410;SDS011;11878;51.774;7.220;2022-09-09T13:37:31;3.33;;;1.07;;
23410;SDS011;11878;51.774;7.220;2022-09-09T13:40:38;2.20;;;0.53;;
23410;SDS011;11878;51.774;7.220;2022-09-09T13:43:43;11.23;;;1.37;;
23410;SDS011;11878;51.774;7.220;2022-09-09T13:46:58;2.57;;;1.00;;
23410;SDS011;11878;51.774;7.220;2022-09-09T13:50:21;3.73;;;0.90;;
23410;SDS011;11878;51.774;7.220;2022-09-09T13:53:27;2.83;;;0.80;;
23410;SDS011;11878;51.774;7.220;2022-09-09T13:56:29;1.23;;;0.53;;
23410;SDS011;11878;51.774;7.220;2022-09-09T13:59:31;3.60;;;0.77;;
23410;SDS011;11878;51.774;7.220;2022-09-09T14:02:53;3.63;;;0.70;;
23410;SDS011;11878;51.774;7.220;2022-09-09T14:05:56;3.67;;;0.50;;
23410;SDS011;11878;51.774;7.220;2022-09-09T14:08:58;2.77;;;0.47;;
23410;SDS011;11878;51.774;7.220;2022-09-09T14:12:00;1.87;;;0.57;;
23410;SDS011;11878;51.774;7.220;2022-09-09T14:15:04;3.23;;;0.70;;
23410;SDS011;11878;51.774;7.220;2022-09-09T14:18:09;2.07;;;0.63;;
23410;SDS011;11878;51.774;7.220;2022-09-09T14:21:12;3.50;;;0.60;;
23410;SDS011;11878;51.774;7.220;2022-09-09T14:24:14;1.60;;;0.47;;
23410;SDS011;11878;51.774;7.220;2022-09-09T14:27:16;1.50;;;0.60;;
23410;SDS011;11878;51.774;7.220;2022-09-09T14:30:18;2.93;;;0.50;;
23410;SDS011;11878;51.774;7.220;2022-09-09T14:33:20;1.60;;;0.60;;
23410;SDS011;11878;51.774;7.220;2022-09-09T14:36:22;2.67;;;0.50;;
23410;SDS011;11878;51.774;7.220;2022-09-09T14:39:25;1.10;;;0.60;;
23410;SDS011;11878;51.774;7.220;2022-09-09T14:42:27;0.77;;;0.50;;
23410;SDS011;11878;51.774;7.220;2022-09-09T14:45:30;1.30;;;0.77;;
23410;SDS011;11878;51.774;7.220;2022-09-09T14:48:32;4.50;;;0.77;;
23410;SDS011;11878;51.774;7.220;2022-09-09T14:51:35;1.37;;;0.57;;
23410;SDS011;11878;51.774;7.220;2022-09-09T14:54:37;2.87;;;0.70;;
23410;SDS011;11878;51.774;7.220;2022-09-09T14:57:38;1.57;;;0.53;;
23410;SDS011;11878;51.774;7.220;2022-09-09T15:00:41;3.90;;;0.80;;
23410;SDS011;11878;51.774;7.220;2022-09-09T15:03:47;3.93;;;1.00;;
23410;SDS011;11878;51.774;7.220;2022-09-09T15:06:51;1.27;;;0.70;;
23410;SDS011;11878;51.774;7.220;2022-09-09T15:09:54;3.33;;;0.93;;
23410;SDS011;11878;51.774;7.220;2022-09-09T15:12:56;2.93;;;0.90;;
23410;SDS011;11878;51.774;7.220;2022-09-09T15:16:05;1.47;;;0.63;;
23410;SDS011;11878;51.774;7.220;2022-09-09T15:19:07;3.77;;;0.57;;
23410;SDS011;11878;51.774;7.220;2022-09-09T15:22:10;1.60;;;0.70;;
23410;SDS011;11878;51.774;7.220;2022-09-09T15:25:11;1.03;;;0.50;;
23410;SDS011;11878;51.774;7.220;2022-09-09T15:28:13;4.00;;;0.63;;
23410;SDS011;11878;51.774;7.220;2022-09-09T15:31:16;6.17;;;0.80;;
23410;SDS011;11878;51.774;7.220;2022-09-09T15:34:23;7.00;;;1.07;;
23410;SDS011;11878;51.774;7.220;2022-09-09T15:37:24;6.83;;;1.23;;
23410;SDS011;11878;51.774;7.220;2022-09-09T15:40:26;14.47;;;1.73;;
23410;SDS011;11878;51.774;7.220;2022-09-09T15:43:28;1.57;;;0.90;;
23410;SDS011;11878;51.774;7.220;2022-09-09T15:46:31;15.97;;;1.30;;
23410;SDS011;11878;51.774;7.220;2022-09-09T15:49:38;2.57;;;1.43;;
23410;SDS011;11878;51.774;7.220;2022-09-09T15:52:40;5.10;;;1.40;;
23410;SDS011;11878;51.774;7.220;2022-09-09T15:55:42;4.03;;;0.90;;
23410;SDS011;11878;51.774;7.220;2022-09-09T15:58:46;4.30;;;1.07;;
23410;SDS011;11878;51.774;7.220;2022-09-09T16:01:48;6.53;;;1.03;;
23410;SDS011;11878;51.774;7.220;2022-09-09T16:04:52;4.77;;;1.23;;
23410;SDS011;11878;51.774;7.220;2022-09-09T16:07:54;4.60;;;1.07;;
23410;SDS011;11878;51.774;7.220;2022-09-09T16:10:55;5.13;;;1.20;;
23410;SDS011;11878;51.774;7.220;2022-09-09T16:13:57;4.27;;;1.00;;
23410;SDS011;11878;51.774;7.220;2022-09-09T16:17:00;4.33;;;1.03;;
23410;SDS011;11878;51.774;7.220;2022-09-09T16:20:02;5.23;;;1.40;;
23410;SDS011;11878;51.774;7.220;2022-09-09T16:23:04;2.50;;;1.00;;
23410;SDS011;11878;51.774;7.220;2022-09-09T16:26:06;3.87;;;1.30;;
23410;SDS011;11878;51.774;7.220;2022-09-09T16:29:12;6.33;;;1.30;;
23410;SDS011;11878;51.774;7.220;2022-09-09T16:32:15;3.60;;;1.07;;
23410;SDS011;11878;51.774;7.220;2022-09-09T16:35:17;2.50;;;1.03;;
23410;SDS011;11878;51.774;7.220;2022-09-09T16:38:20;3.47;;;1.27;;
23410;SDS011;11878;51.774;7.220;2022-09-09T16:41:22;1.63;;;0.90;;
23410;SDS011;11878;51.774;7.220;2022-09-09T16:44:24;2.13;;;0.60;;
23410;SDS011;11878;51.774;7.220;2022-09-09T16:47:27;2.83;;;0.90;;
23410;SDS011;11878;51.774;7.220;2022-09-09T16:50:30;4.47;;;1.20;;
23410;SDS011;11878;51.774;7.220;2022-09-09T16:53:32;1.63;;;1.13;;
23410;SDS011;11878;51.774;7.220;2022-09-09T16:56:35;3.20;;;0.97;;
23410;SDS011;11878;51.774;7.220;2022-09-09T16:59:39;3.07;;;1.27;;
23410;SDS011;11878;51.774;7.220;2022-09-09T17:02:40;3.43;;;0.70;;
23410;SDS011;11878;51.774;7.220;2022-09-09T17:05:42;3.80;;;0.80;;
23410;SDS011;11878;51.774;7.220;2022-09-09T17:08:45;1.70;;;0.67;;
23410;SDS011;11878;51.774;7.220;2022-09-09T17:11:47;1.27;;;0.67;;
23410;SDS011;11878;51.774;7.220;2022-09-09T17:14:51;3.20;;;0.80;;
23410;SDS011;11878;51.774;7.220;2022-09-09T17:17:53;2.10;;;1.10;;
23410;SDS011;11878;51.774;7.220;2022-09-09T17:20:56;2.57;;;0.70;;
23410;SDS011;11878;51.774;7.220;2022-09-09T17:24:04;2.67;;;0.50;;
23410;SDS011;11878;51.774;7.220;2022-09-09T17:27:06;1.03;;;0.70;;
23410;SDS011;11878;51.774;7.220;2022-09-09T17:30:10;4.70;;;0.53;;
23410;SDS011;11878;51.774;7.220;2022-09-09T17:33:12;1.77;;;0.57;;
23410;SDS011;11878;51.774;7.220;2022-09-09T17:36:15;1.87;;;0.40;;
23410;SDS011;11878;51.774;7.220;2022-09-09T17:39:19;2.03;;;1.17;;
23410;SDS011;11878;51.774;7.220;2022-09-09T17:42:21;1.97;;;0.57;;
23410;SDS011;11878;51.774;7.220;2022-09-09T17:45:23;4.23;;;0.57;;
23410;SDS011;11878;51.774;7.220;2022-09-09T17:48:24;3.50;;;0.67;;
23410;SDS011;11878;51.774;7.220;2022-09-09T17:51:27;0.97;;;0.60;;
23410;SDS011;11878;51.774;7.220;2022-09-09T17:54:31;1.40;;;0.57;;
23410;SDS011;11878;51.774;7.220;2022-09-09T17:57:34;3.57;;;0.60;;
23410;SDS011;11878;51.774;7.220;2022-09-09T18:00:36;0.97;;;0.60;;
23410;SDS011;11878;51.774;7.220;2022-09-09T18:03:39;3.73;;;0.83;;
23410;SDS011;11878;51.774;7.220;2022-09-09T18:06:47;4.43;;;0.80;;
23410;SDS011;11878;51.774;7.220;2022-09-09T18:09:51;0.80;;;0.67;;
23410;SDS011;11878;51.774;7.220;2022-09-09T18:12:52;1.03;;;0.87;;
23410;SDS011;11878;51.774;7.220;2022-09-09T18:15:54;1.47;;;0.80;;
23410;SDS011;11878;51.774;7.220;2022-09-09T18:18:56;1.87;;;0.60;;
23410;SDS011;11878;51.774;7.220;2022-09-09T18:21:58;11.33;;;1.93;;
23410;SDS011;11878;51.774;7.220;2022-09-09T18:25:03;2.60;;;1.00;;
23410;SDS011;11878;51.774;7.220;2022-09-09T18:28:05;1.77;;;0.70;;
23410;SDS011;11878;51.774;7.220;2022-09-09T18:31:09;5.23;;;1.07;;
23410;SDS011;11878;51.774;7.220;2022-09-09T18:34:14;1.23;;;0.70;;
23410;SDS011;11878;51.774;7.220;2022-09-09T18:37:17;2.53;;;0.80;;
23410;SDS011;11878;51.774;7.220;2022-09-09T18:40:19;2.93;;;0.83;;
23410;SDS011;11878;51.774;7.220;2022-09-09T18:43:21;5.83;;;0.97;;
23410;SDS011;11878;51.774;7.220;2022-09-09T18:46:23;3.83;;;1.07;;
23410;SDS011;11878;51.774;7.220;2022-09-09T18:49:26;2.47;;;1.27;;
23410;SDS011;11878;51.774;7.220;2022-09-09T18:52:28;3.20;;;1.03;;
23410;SDS011;11878;51.774;7.220;2022-09-09T18:55:30;3.97;;;1.20;;
23410;SDS011;11878;51.774;7.220;2022-09-09T18:58:33;5.37;;;1.40;;
23410;SDS011;11878;51.774;7.220;2022-09-09T19:01:35;2.60;;;1.23;;
23410;SDS011;11878;51.774;7.220;2022-09-09T19:04:37;2.53;;;1.30;;
23410;SDS011;11878;51.774;7.220;2022-09-09T19:07:39;2.57;;;1.20;;
23410;SDS011;11878;51.774;7.220;2022-09-09T19:10:41;1.63;;;1.10;;
23410;SDS011;11878;51.774;7.220;2022-09-09T19:13:43;7.10;;;1.77;;
23410;SDS011;11878;51.774;7.220;2022-09-09T19:16:50;3.10;;;1.70;;
23410;SDS011;11878;51.774;7.220;2022-09-09T19:19:52;3.67;;;1.50;;
23410;SDS011;11878;51.774;7.220;2022-09-09T19:22:55;4.67;;;1.40;;
23410;SDS011;11878;51.774;7.220;2022-09-09T19:26:00;2.43;;;1.57;;
23410;SDS011;11878;51.774;7.220;2022-09-09T19:29:02;8.17;;;2.30;;
23410;SDS011;11878;51.774;7.220;2022-09-09T19:32:04;4.37;;;2.03;;
23410;SDS011;11878;51.774;7.220;2022-09-09T19:35:26;2.77;;;1.80;;
23410;SDS011;11878;51.774;7.220;2022-09-09T19:38:28;7.67;;;2.70;;
23410;SDS011;11878;51.774;7.220;2022-09-09T19:41:31;4.93;;;2.43;;
23410;SDS011;11878;51.774;7.220;2022-09-09T19:44:34;5.57;;;1.90;;
23410;SDS011;11878;51.774;7.220;2022-09-09T19:47:36;5.00;;;2.40;;
23410;SDS011;11878;51.774;7.220;2022-09-09T19:50:37;3.77;;;2.63;;
23410;SDS011;11878;51.774;7.220;2022-09-09T19:53:44;6.17;;;2.27;;
23410;SDS011;11878;51.774;7.220;2022-09-09T19:56:56;4.33;;;2.70;;
23410;SDS011;11878;51.774;7.220;2022-09-09T19:59:59;16.87;;;3.80;;
23410;SDS011;11878;51.774;7.220;2022-09-09T20:03:01;8.80;;;3.97;;
23410;SDS011;11878;51.774;7.220;2022-09-09T20:06:20;9.23;;;3.97;;
23410;SDS011;11878;51.774;7.220;2022-09-09T20:09:25;6.77;;;4.00;;
23410;SDS011;11878;51.774;7.220;2022-09-09T20:12:27;5.80;;;4.37;;
23410;SDS011;11878;51.774;7.220;2022-09-09T20:15:29;8.77;;;5.00;;
23410;SDS011;11878;51.774;7.220;2022-09-09T20:18:31;7.00;;;5.27;;
23410;SDS011;11878;51.774;7.220;2022-09-09T20:21:35;8.63;;;4.90;;
23410;SDS011;11878;51.774;7.220;2022-09-09T20:24:42;8.67;;;4.97;;